Accueil
METAR-TAF:

METAR-TAF

Aéroports :

Aéroport de Lahr

Lahr, Allemagne

latitude: 48-22-09N, longitude: 007-49-40E, altitude: 156 m

Observation

Le bulletin a été fait il y a 10 heures et 34 minutes, à 18:50 UTC
Vent 2 kt de sud/sud-est
Température 4°C
Humidité 81%
Pression 1030 hPa
Visibilité 10 km ou plus
pas de nuages en-dessous de 1500 mètres et pas de cumulonimbus.

METAR: EDTL 151850Z 16002KT CAVOK 04/01 Q1030

Heure: 06:24 (05:24 UTC)

Prévision

Le bulletin a été fait il y a 12 heures et 24 minutes, à 17:00 UTC
Prévision valable du 15 à 18 UTC au 15 à 24 UTC
Vent 3 kt de direction variable
Visibilité 10 km ou plus
pas de nuages en-dessous de 1500 mètres et pas de cumulonimbus.
Temporairement
du 15 à 21 UTC au 15 à 24 UTC
Visibilité: 3000 m
brume

TAF: EDTL 151700Z 1518/1524 VRB03KT CAVOK TEMPO 1521/1524 3000 BR

Observations et prévisions météorologiques de plus de 4000 aéroports (messages METAR et TAF).

Les stations disponibles sont représentées par des disques jaunes et rouges sur la carte.

Passer la souris dessus pour voir le nom de la station.

Cliquer dessus pour voir les observations et prévisions météorologiques.

Pour changer de carte: cliquez sur les boutons verts avec une croix noire pour zoomer, sur le bouton vert avec un tiret pour effectuer un zoom arrière, ou sur les flèches vertes pour les cartes adjacentes.


METAR-TAF: